Time;durP1;ratioP1;P1;durP2;ratioP2;P2;SDS_P1;SDS_P2;PMS_P1;PMS_P2;Temp;Humidity;BMP_temperature;BMP_pressure;BME280_temperature;BME280_humidity;BME280_pressure;Samples;Min_cycle;Max_cycle;Signal;HPM_P1;HPM_P2
2022/06/29 00:02:08;;;;;;;4.13;2.60;;;;;;;17.50;73.42;102008.88;4966984;28;20190;-71
2022/06/29 00:04:33;;;;;;;5.23;2.40;;;;;;;17.47;73.51;102003.69;4966885;28;20566;-72
2022/06/29 00:06:59;;;;;;;2.87;2.23;;;;;;;17.48;73.18;101997.66;4935458;29;20185;-73
2022/06/29 00:09:24;;;;;;;3.57;2.27;;;;;;;17.47;73.38;101993.31;4935832;29;20216;-72
2022/06/29 00:11:50;;;;;;;3.33;2.10;;;;;;;17.47;73.13;101989.84;4935695;29;20194;-72
2022/06/29 00:14:15;;;;;;;2.73;2.33;;;;;;;17.42;73.40;102001.91;4936059;29;20196;-72
2022/06/29 00:16:41;;;;;;;3.03;2.30;;;;;;;17.40;73.06;102001.03;4936058;29;20289;-71
2022/06/29 00:19:07;;;;;;;4.33;2.30;;;;;;;17.40;73.02;101999.28;4935274;29;20224;-69
2022/06/29 00:21:33;;;;;;;2.60;2.37;;;;;;;17.39;72.97;102005.31;4935576;29;20190;-69
2022/06/29 00:23:59;;;;;;;3.27;2.07;;;;;;;17.33;73.58;101991.41;4935248;29;20667;-72
2022/06/29 00:26:26;;;;;;;2.97;1.90;;;;;;;17.34;73.11;101995.72;4935173;29;20268;-69
2022/06/29 00:28:52;;;;;;;3.23;2.10;;;;;;;17.35;73.14;101995.75;4965689;28;20268;-69
2022/06/29 00:31:18;;;;;;;2.60;2.07;;;;;;;17.29;73.14;101990.50;4935644;29;20189;-72
2022/06/29 00:33:43;;;;;;;2.57;2.07;;;;;;;17.28;73.06;101998.25;4935656;29;20197;-69
2022/06/29 00:36:09;;;;;;;3.50;2.13;;;;;;;17.25;73.05;101993.03;4965121;28;20239;-69
2022/06/29 00:38:35;;;;;;;2.67;2.20;;;;;;;17.21;73.68;101994.72;4965957;28;20237;-70
2022/06/29 00:41:00;;;;;;;2.93;2.63;;;;;;;17.19;73.63;101993.84;4934835;29;20209;-69
2022/06/29 00:43:26;;;;;;;3.43;1.90;;;;;;;17.12;74.03;101983.41;4935475;29;20667;-70
2022/06/29 00:45:52;;;;;;;2.20;1.93;;;;;;;17.05;73.97;101994.53;4934752;29;20194;-70
2022/06/29 00:48:18;;;;;;;2.70;2.00;;;;;;;17.08;73.90;101985.09;4935073;29;20296;-70
2022/06/29 00:50:46;;;;;;;3.27;2.40;;;;;;;17.03;74.48;101988.47;4934636;29;20281;-70
2022/06/29 00:53:15;;;;;;;2.43;2.23;;;;;;;16.98;74.27;101975.50;4935212;29;20677;-69
2022/06/29 00:55:44;;;;;;;2.33;2.10;;;;;;;16.90;74.91;101979.69;4935226;29;20194;-72
2022/06/29 00:58:10;;;;;;;3.70;2.17;;;;;;;16.89;74.54;101969.31;4964685;28;20670;-70
2022/06/29 01:00:36;;;;;;;3.67;2.03;;;;;;;16.88;74.48;101960.72;4935071;29;20194;-69
2022/06/29 01:03:03;;;;;;;3.67;2.23;;;;;;;16.89;74.66;101969.31;4965305;28;20228;-72
2022/06/29 01:05:30;;;;;;;3.37;2.00;;;;;;;16.90;74.43;101960.72;4934745;29;20186;-72
2022/06/29 01:07:57;;;;;;;3.80;2.40;;;;;;;16.89;74.11;101961.56;4934051;29;20209;-71
2022/06/29 01:10:22;;;;;;;3.30;2.07;;;;;;;16.87;74.26;101968.44;4934888;29;20819;-71
2022/06/29 01:12:49;;;;;;;2.77;2.20;;;;;;;16.84;74.55;101969.28;4934521;29;20217;-71
2022/06/29 01:15:14;;;;;;;2.33;2.10;;;;;;;16.85;74.00;101965.00;4933392;29;20200;-72
2022/06/29 01:17:40;;;;;;;2.77;2.20;;;;;;;16.86;74.25;101962.38;4933647;29;20639;-71
2022/06/29 01:20:08;;;;;;;2.50;2.00;;;;;;;16.86;74.42;101961.53;4932866;29;20245;-71
2022/06/29 01:22:33;;;;;;;2.43;2.00;;;;;;;16.82;74.39;101960.66;4934626;29;20197;-71
2022/06/29 01:24:59;;;;;;;3.70;2.20;;;;;;;16.77;74.18;101959.69;4933826;29;20768;-70
2022/06/29 01:27:25;;;;;;;2.63;2.10;;;;;;;16.75;74.90;101956.22;4934512;29;20288;-71
2022/06/29 01:29:50;;;;;;;3.37;2.10;;;;;;;16.69;75.03;101950.13;4934443;29;20216;-71
2022/06/29 01:32:16;;;;;;;2.10;1.90;;;;;;;16.70;74.65;101954.44;4965328;28;20193;-70
2022/06/29 01:34:43;;;;;;;2.53;1.90;;;;;;;16.70;74.54;101949.25;4934261;29;20194;-71
2022/06/29 01:37:08;;;;;;;3.23;2.10;;;;;;;16.64;75.05;101944.91;4963951;28;20611;-71
2022/06/29 01:39:35;;;;;;;2.87;1.93;;;;;;;16.61;75.63;101949.13;4933912;29;20276;-72
2022/06/29 01:42:00;;;;;;;3.17;2.00;;;;;;;16.58;75.29;101949.13;4933776;29;20174;-71
2022/06/29 01:44:26;;;;;;;2.57;1.90;;;;;;;16.52;75.40;101952.50;4934141;29;20831;-71
2022/06/29 01:46:51;;;;;;;2.40;2.03;;;;;;;16.50;75.87;101950.72;4933500;29;20296;-72
2022/06/29 01:49:17;;;;;;;2.37;2.00;;;;;;;16.47;75.84;101953.28;4933714;29;20345;-70
2022/06/29 01:51:42;;;;;;;3.27;2.13;;;;;;;16.45;76.35;101944.63;4933830;29;20205;-71
2022/06/29 01:54:08;;;;;;;3.83;2.07;;;;;;;16.42;75.84;101948.06;4933195;29;20194;-71
2022/06/29 01:56:34;;;;;;;3.17;2.00;;;;;;;16.42;76.25;101940.28;4933877;29;20187;-70
2022/06/29 01:58:59;;;;;;;2.23;1.90;;;;;;;16.34;76.82;101943.59;4933135;29;20220;-71
2022/06/29 02:01:25;;;;;;;2.30;2.10;;;;;;;16.33;76.50;101944.41;4933496;29;20205;-71
2022/06/29 02:03:51;;;;;;;2.30;2.10;;;;;;;16.40;76.58;101941.13;4933339;29;20368;-71
2022/06/29 02:06:18;;;;;;;3.50;2.10;;;;;;;16.39;76.15;101939.34;4964074;28;20190;-70
2022/06/29 02:08:44;;;;;;;2.50;2.00;;;;;;;16.34;76.66;101928.94;4932640;29;20202;-71
2022/06/29 02:11:10;;;;;;;4.20;2.43;;;;;;;16.26;77.24;101932.28;4933541;29;20190;-71
2022/06/29 02:13:35;;;;;;;3.10;2.33;;;;;;;16.23;77.05;101933.09;4933687;29;20201;-71
2022/06/29 02:16:01;;;;;;;2.20;1.90;;;;;;;16.18;77.22;101924.41;4932889;29;20198;-70
2022/06/29 02:18:26;;;;;;;2.50;2.10;;;;;;;16.14;77.08;101920.06;4933413;29;20218;-69
2022/06/29 02:20:51;;;;;;;3.50;2.00;;;;;;;16.17;76.61;101911.47;4932848;29;20200;-68
2022/06/29 02:23:17;;;;;;;3.07;2.03;;;;;;;16.14;76.61;101917.47;4933563;29;20198;-70
2022/06/29 02:25:43;;;;;;;3.73;2.17;;;;;;;16.13;76.86;101909.69;4932943;29;20204;-69
2022/06/29 02:28:08;;;;;;;2.87;2.43;;;;;;;16.15;76.44;101903.69;4933270;29;20217;-69
2022/06/29 02:36:02;;;;;;;2.17;1.67;;;;;;;16.18;76.09;101908.03;4933230;29;20337;-69
2022/06/29 02:38:27;;;;;;;2.63;2.07;;;;;;;16.16;76.41;101902.00;4932346;29;20304;-72
2022/06/29 02:40:53;;;;;;;3.60;1.83;;;;;;;16.13;76.12;101905.41;4933489;29;20682;-69
2022/06/29 02:43:18;;;;;;;1.70;1.50;;;;;;;16.15;75.83;101911.44;4933177;29;20185;-69
2022/06/29 02:45:44;;;;;;;2.77;1.97;;;;;;;16.17;75.84;101903.72;4932006;29;20287;-72
2022/06/29 02:48:09;;;;;;;3.00;2.27;;;;;;;16.15;76.07;101907.97;4932709;29;20221;-71
2022/06/29 02:50:35;;;;;;;2.60;2.10;;;;;;;16.19;76.11;101914.94;4931802;29;20732;-71
2022/06/29 02:53:00;;;;;;;3.57;2.10;;;;;;;16.11;76.29;101901.91;4932963;29;20774;-69
2022/06/29 02:55:26;;;;;;;3.07;2.20;;;;;;;16.13;75.86;101904.53;4931106;29;20189;-70
2022/06/29 02:57:51;;;;;;;3.23;2.00;;;;;;;16.12;76.04;101907.97;4932817;29;20698;-70
2022/06/29 03:00:17;;;;;;;2.40;1.80;;;;;;;16.10;76.31;101907.94;4962776;28;20618;-71
2022/06/29 03:02:43;;;;;;;4.17;2.37;;;;;;;16.07;76.42;101894.09;4932439;29;20574;-72
2022/06/29 03:05:09;;;;;;;2.40;1.83;;;;;;;16.13;76.14;101891.59;4931900;29;20277;-71
2022/06/29 03:07:35;;;;;;;2.33;2.00;;;;;;;16.13;76.13;101896.75;4932638;29;20214;-71
2022/06/29 03:10:00;;;;;;;2.60;1.87;;;;;;;16.14;75.95;101893.31;4932600;29;20181;-71
2022/06/29 03:12:25;;;;;;;3.33;1.83;;;;;;;16.18;75.23;101896.00;4932402;29;20217;-71
2022/06/29 03:14:51;;;;;;;2.43;1.50;;;;;;;16.20;75.25;101895.97;4963511;28;20233;-72
2022/06/29 03:17:17;;;;;;;2.90;2.03;;;;;;;16.23;75.30;101896.03;4961496;28;20237;-71
2022/06/29 03:19:43;;;;;;;4.13;2.00;;;;;;;16.21;75.57;101896.00;4962508;28;20225;-72
2022/06/29 03:22:08;;;;;;;2.20;1.93;;;;;;;16.20;75.50;101896.88;4932102;29;20193;-68
2022/06/29 03:24:34;;;;;;;2.80;1.87;;;;;;;16.26;74.67;101893.50;4932545;29;20188;-71
2022/06/29 03:26:59;;;;;;;2.33;1.70;;;;;;;16.30;75.01;101897.88;4931780;29;20767;-71
2022/06/29 03:29:25;;;;;;;3.63;1.67;;;;;;;16.32;74.83;101893.56;4963154;28;20293;-71
2022/06/29 03:31:51;;;;;;;5.60;2.23;;;;;;;16.37;74.28;101887.63;4932622;29;20606;-71
2022/06/29 03:34:17;;;;;;;4.30;1.97;;;;;;;16.42;73.82;101893.75;4946145;28;20233;-70
2022/06/29 03:36:42;;;;;;;2.67;2.10;;;;;;;16.47;74.08;101894.69;4950419;29;20348;-71
2022/06/29 03:39:08;;;;;;;1.87;1.60;;;;;;;16.50;74.16;101886.09;4950322;29;20228;-71
2022/06/29 03:41:33;;;;;;;3.10;1.93;;;;;;;16.54;73.72;101891.28;4945874;28;20189;-71
2022/06/29 03:43:58;;;;;;;3.37;1.60;;;;;;;16.61;72.82;101892.25;4962794;28;20197;-70
2022/06/29 03:46:24;;;;;;;3.90;1.83;;;;;;;16.64;73.08;101890.59;4934017;29;20557;-70
2022/06/29 03:48:49;;;;;;;3.30;1.53;;;;;;;16.67;72.67;101882.84;4951465;28;20559;-71
2022/06/29 03:51:15;;;;;;;3.60;1.80;;;;;;;16.71;72.71;101889.78;4941653;29;20670;-71
2022/06/29 03:53:40;;;;;;;1.87;1.37;;;;;;;16.75;72.52;101886.38;4963925;28;20189;-71
2022/06/29 03:56:06;;;;;;;4.17;1.70;;;;;;;16.79;72.15;101887.28;4951019;28;20272;-72
2022/06/29 03:58:31;;;;;;;2.97;1.50;;;;;;;16.82;72.24;101890.78;4943543;28;20217;-71
2022/06/29 04:00:57;;;;;;;2.97;1.70;;;;;;;16.84;71.96;101883.00;4931856;29;20201;-71
2022/06/29 04:03:22;;;;;;;2.27;1.60;;;;;;;16.88;71.50;101869.25;4963105;28;20276;-71
2022/06/29 04:05:48;;;;;;;2.90;1.80;;;;;;;16.89;71.54;101884.81;4931926;29;20193;-71
2022/06/29 04:08:13;;;;;;;3.07;1.37;;;;;;;16.93;70.75;101886.59;4931790;29;20213;-71
2022/06/29 04:10:39;;;;;;;2.07;1.50;;;;;;;16.97;71.03;101884.88;4939372;29;20271;-72
2022/06/29 04:13:04;;;;;;;1.50;1.40;;;;;;;16.99;71.00;101886.63;4950737;28;20220;-70
2022/06/29 04:15:29;;;;;;;4.13;1.70;;;;;;;17.02;70.85;101884.09;4951019;28;20284;-70
2022/06/29 04:17:55;;;;;;;3.97;1.70;;;;;;;17.03;71.20;101890.13;4950875;28;20260;-70
2022/06/29 04:23:04;;;;;;;2.00;1.60;;;;;;;17.09;70.48;101882.44;4950737;28;20181;-71
2022/06/29 04:25:30;;;;;;;2.07;1.57;;;;;;;17.12;70.14;101885.91;4950968;28;20193;-71
2022/06/29 04:27:55;;;;;;;3.10;1.83;;;;;;;17.16;70.30;101881.63;4951079;28;20267;-70
2022/06/29 04:30:21;;;;;;;2.40;1.47;;;;;;;17.18;70.14;101877.34;4950553;28;20664;-70
2022/06/29 04:32:47;;;;;;;2.70;1.50;;;;;;;17.22;69.38;101873.94;4953331;28;20241;-70
2022/06/29 04:35:12;;;;;;;2.00;1.50;;;;;;;17.26;69.75;101873.97;4952838;29;20189;-71
2022/06/29 04:37:38;;;;;;;2.37;1.50;;;;;;;17.28;69.19;101868.78;4954357;28;20244;-70
2022/06/29 04:40:04;;;;;;;1.93;1.50;;;;;;;17.32;69.45;101879.19;4953870;28;20228;-71
2022/06/29 04:42:30;;;;;;;4.50;1.77;;;;;;;17.33;69.15;101875.75;4954598;28;20185;-71
2022/06/29 04:44:55;;;;;;;1.73;1.50;;;;;;;17.37;68.84;101880.09;4953975;28;20241;-71
2022/06/29 04:47:21;;;;;;;2.10;1.60;;;;;;;17.44;69.15;101886.22;4945009;28;20205;-71
2022/06/29 04:49:46;;;;;;;2.00;1.40;;;;;;;17.53;68.88;101883.69;4935049;29;20166;-71
2022/06/29 04:52:12;;;;;;;2.13;1.50;;;;;;;17.63;68.14;101882.91;4935008;29;20660;-71
2022/06/29 04:54:39;;;;;;;2.37;1.77;;;;;;;17.69;68.19;101885.56;4935075;29;20197;-71
2022/06/29 04:57:06;;;;;;;2.03;1.40;;;;;;;17.73;67.43;101872.63;4965033;28;20182;-72
2022/06/29 04:59:32;;;;;;;2.37;1.60;;;;;;;17.75;67.22;101878.72;4934714;29;20249;-71
2022/06/29 05:01:58;;;;;;;2.40;1.70;;;;;;;17.86;66.74;101878.75;4934664;29;20233;-71
2022/06/29 05:04:23;;;;;;;2.50;1.63;;;;;;;17.96;67.05;101878.81;4965796;28;20241;-71
2022/06/29 05:06:49;;;;;;;1.70;1.27;;;;;;;18.11;65.76;101883.25;4934858;29;20657;-71
2022/06/29 05:09:14;;;;;;;2.33;1.63;;;;;;;18.19;65.64;101878.97;4934510;29;20206;-71
2022/06/29 05:11:40;;;;;;;1.73;1.53;;;;;;;18.24;65.08;101878.13;4935269;29;20194;-71
2022/06/29 05:14:05;;;;;;;3.97;1.50;;;;;;;18.35;64.34;101888.56;4965389;28;20193;-71
2022/06/29 05:16:31;;;;;;;2.03;1.50;;;;;;;18.49;64.29;101879.13;4934623;29;20272;-71
2022/06/29 05:18:56;;;;;;;1.83;1.50;;;;;;;18.58;64.47;101886.94;4933858;29;20220;-71
2022/06/29 05:21:21;;;;;;;2.40;1.50;;;;;;;18.70;63.71;101879.22;4934643;29;20221;-73
2022/06/29 05:23:47;;;;;;;3.13;1.50;;;;;;;18.80;62.78;101879.22;4934536;29;20274;-69
2022/06/29 05:26:13;;;;;;;1.80;1.50;;;;;;;18.90;62.61;101881.00;4933936;29;20566;-69
2022/06/29 05:28:39;;;;;;;1.93;1.53;;;;;;;18.95;62.43;101879.28;4934217;29;20707;-71
2022/06/29 05:31:04;;;;;;;2.27;1.60;;;;;;;19.07;62.58;101879.28;4934226;29;20190;-71
2022/06/29 05:33:36;;;;;;;4.20;1.37;;;;;;;19.21;61.96;101872.38;4934641;29;20700;-72
2022/06/29 05:36:06;;;;;;;4.63;1.70;;;;;;;19.37;61.68;101874.16;4964670;28;20194;-69
2022/06/29 05:38:32;;;;;;;5.90;1.57;;;;;;;19.42;60.89;101867.22;4934064;29;20221;-71
2022/06/29 05:41:00;;;;;;;2.83;1.50;;;;;;;19.57;61.54;101861.16;4964546;28;20268;-71
2022/06/29 05:43:30;;;;;;;3.40;1.30;;;;;;;19.61;60.72;101868.94;4933994;29;20217;-71
2022/06/29 05:45:56;;;;;;;1.90;1.50;;;;;;;19.83;61.05;101874.97;4934954;29;20186;-69
2022/06/29 05:48:22;;;;;;;3.93;1.40;;;;;;;20.04;60.28;101875.78;4933379;29;20233;-71
2022/06/29 05:50:48;;;;;;;4.50;1.33;;;;;;;20.13;59.68;101870.59;4941058;29;20280;-71
2022/06/29 05:53:14;;;;;;;4.23;1.63;;;;;;;20.18;59.73;101875.78;4949865;29;20204;-72
2022/06/29 05:55:40;;;;;;;4.53;1.70;;;;;;;20.36;59.51;101868.78;4953085;28;20713;-71
2022/06/29 05:58:05;;;;;;;3.53;1.43;;;;;;;20.48;59.49;101870.44;4952194;28;20309;-71
2022/06/29 06:00:31;;;;;;;2.33;1.57;;;;;;;20.53;59.66;101874.78;4951325;28;20488;-71
2022/06/29 06:02:56;;;;;;;2.60;1.60;;;;;;;20.51;58.97;101868.72;4943268;28;20534;-71
2022/06/29 06:05:22;;;;;;;4.87;1.50;;;;;;;20.64;59.35;101875.56;4933609;29;20249;-72
2022/06/29 06:07:47;;;;;;;3.40;1.73;;;;;;;20.73;59.14;101861.66;4933621;29;20701;-72
2022/06/29 06:10:13;;;;;;;4.30;1.50;;;;;;;20.73;59.23;101859.06;4933329;29;20625;-71
2022/06/29 06:12:38;;;;;;;2.83;1.60;;;;;;;20.81;59.11;101868.53;4964188;28;20185;-70
2022/06/29 06:15:05;;;;;;;3.27;1.60;;;;;;;20.83;58.68;101863.34;4919773;28;20251;-70
2022/06/29 06:17:30;;;;;;;3.57;1.50;;;;;;;20.87;59.11;101860.69;4932036;29;20232;-71
2022/06/29 06:19:58;;;;;;;2.73;1.47;;;;;;;20.85;59.45;101857.25;4932913;29;20292;-72
2022/06/29 06:22:23;;;;;;;4.53;1.93;;;;;;;20.96;58.84;101857.22;4933015;29;20253;-71
2022/06/29 06:24:49;;;;;;;3.83;1.57;;;;;;;21.24;58.93;101861.34;4933499;29;20707;-70
2022/06/29 06:27:14;;;;;;;3.33;1.50;;;;;;;21.22;58.34;101863.97;4945812;29;20197;-71
2022/06/29 06:29:40;;;;;;;2.07;1.80;;;;;;;21.33;58.43;101863.88;4949254;28;20264;-72
2022/06/29 06:32:06;;;;;;;2.77;1.73;;;;;;;21.06;59.00;101856.28;4932031;29;20206;-71
2022/06/29 06:34:31;;;;;;;3.13;1.63;;;;;;;21.14;59.46;101857.09;4932353;29;20245;-71
2022/06/29 06:36:59;;;;;;;3.03;1.60;;;;;;;21.12;59.22;101859.69;4932875;29;20559;-71
2022/06/29 06:39:25;;;;;;;3.27;2.10;;;;;;;21.16;58.92;101850.97;4932926;29;20317;-71
2022/06/29 06:41:51;;;;;;;4.97;1.60;;;;;;;21.49;58.47;101848.09;4933104;29;20252;-71
2022/06/29 06:44:17;;;;;;;3.20;1.73;;;;;;;21.70;58.35;101841.84;4932272;29;20189;-70
2022/06/29 06:46:48;;;;;;;4.10;1.97;;;;;;;21.66;57.60;101850.53;4931550;29;20190;-71
2022/06/29 06:49:15;;;;;;;4.00;1.60;;;;;;;21.61;57.85;101841.91;4932318;29;20249;-71
2022/06/29 06:51:41;;;;;;;3.70;1.70;;;;;;;21.90;57.99;101845.97;4933112;29;20201;-71
2022/06/29 06:54:06;;;;;;;2.53;1.63;;;;;;;22.29;57.21;101836.81;4932144;29;20193;-71
2022/06/29 06:56:31;;;;;;;5.13;1.87;;;;;;;22.54;57.09;101840.88;4932486;29;20277;-71
2022/06/29 06:58:57;;;;;;;4.00;1.70;;;;;;;22.68;56.74;101841.53;4931408;29;20217;-71
2022/06/29 07:01:22;;;;;;;5.07;2.03;;;;;;;22.51;56.61;101834.81;4932466;29;20189;-71
2022/06/29 07:03:48;;;;;;;3.87;1.43;;;;;;;22.46;56.57;101842.69;4932531;29;20284;-71
2022/06/29 07:06:13;;;;;;;5.17;2.00;;;;;;;22.49;58.03;101831.34;4930608;29;20237;-71
2022/06/29 07:08:39;;;;;;;3.07;1.93;;;;;;;22.72;56.60;101830.16;4932498;29;20624;-71
2022/06/29 07:11:06;;;;;;;2.83;1.83;;;;;;;22.90;56.55;101829.00;4932179;29;20731;-71
2022/06/29 07:13:33;;;;;;;1.47;1.37;;;;;;;23.12;56.16;101820.84;4932633;29;20194;-71
2022/06/29 07:15:59;;;;;;;2.87;1.90;;;;;;;23.08;56.49;101816.53;4931940;29;20194;-71
2022/06/29 07:18:24;;;;;;;2.23;1.80;;;;;;;23.09;55.66;101812.16;4932338;29;20651;-71
2022/06/29 07:20:50;;;;;;;2.00;1.80;;;;;;;23.45;55.52;101806.34;4932533;29;20285;-70
2022/06/29 07:23:15;;;;;;;3.47;1.77;;;;;;;23.34;55.40;101803.06;4931904;29;20189;-71
2022/06/29 07:25:41;;;;;;;2.30;1.90;;;;;;;23.64;54.82;101797.25;4932255;29;20220;-72
2022/06/29 07:28:06;;;;;;;3.07;1.77;;;;;;;23.71;54.48;101794.50;4931380;29;20215;-71
2022/06/29 07:30:32;;;;;;;3.20;1.70;;;;;;;23.81;54.42;101792.59;4931490;29;20606;-71
2022/06/29 07:32:57;;;;;;;5.70;1.80;;;;;;;24.33;53.15;101794.13;4930119;29;20221;-71
2022/06/29 07:35:24;;;;;;;1.67;1.57;;;;;;;24.39;53.43;101790.50;4946592;29;20252;-69
2022/06/29 07:37:51;;;;;;;2.80;1.47;;;;;;;24.48;52.88;101796.41;4932106;29;20221;-73
2022/06/29 07:40:17;;;;;;;2.83;2.00;;;;;;;24.34;53.44;101793.22;4927417;29;20217;-71
2022/06/29 07:42:42;;;;;;;1.63;1.50;;;;;;;24.62;52.93;101801.34;4922652;29;20185;-72
2022/06/29 07:45:08;;;;;;;5.17;1.33;;;;;;;24.75;52.70;101800.19;4930335;29;20607;-71
2022/06/29 07:47:34;;;;;;;3.60;1.60;;;;;;;25.08;51.61;101800.25;4931954;29;20200;-72
2022/06/29 07:49:59;;;;;;;1.85;1.60;;;;;;;24.91;52.23;101802.41;4928724;29;20190;-71
2022/06/29 07:52:25;;;;;;;4.47;1.77;;;;;;;24.86;52.94;101803.44;4932582;29;20185;-71
2022/06/29 07:54:51;;;;;;;3.73;1.70;;;;;;;25.13;51.45;101798.34;4932057;29;20197;-71
2022/06/29 07:57:17;;;;;;;2.63;1.67;;;;;;;25.38;52.02;101804.75;4930269;29;20252;-71
2022/06/29 07:59:43;;;;;;;2.58;1.73;;;;;;;25.41;50.89;101807.28;4917149;28;20315;-72
2022/06/29 08:02:09;;;;;;;3.05;1.75;;;;;;;25.73;51.29;101796.78;4946584;28;20195;-72
2022/06/29 08:04:34;;;;;;;3.33;1.70;;;;;;;25.57;51.30;101803.38;4951340;28;20642;-71
2022/06/29 08:07:00;;;;;;;2.10;1.30;;;;;;;25.65;50.61;101804.00;4951117;28;20181;-72
2022/06/29 08:09:25;;;;;;;2.05;1.52;;;;;;;25.31;51.08;101807.53;4954815;28;20292;-71
2022/06/29 08:11:51;;;;;;;4.40;1.92;;;;;;;25.27;50.66;101792.81;4954656;28;20311;-71
2022/06/29 08:14:17;;;;;;;3.03;1.70;;;;;;;25.53;50.53;101799.09;4954262;28;20272;-71
2022/06/29 08:16:43;;;;;;;3.75;1.60;;;;;;;25.66;50.29;101802.25;4949544;28;20209;-71
2022/06/29 08:19:08;;;;;;;2.05;1.60;;;;;;;26.13;50.37;101786.91;4949720;29;20217;-72
2022/06/29 08:21:34;;;;;;;1.98;1.60;;;;;;;25.90;50.08;101797.19;4954754;28;20189;-72
2022/06/29 08:24:00;;;;;;;2.17;1.60;;;;;;;25.94;49.51;101785.72;4952888;29;20189;-72
2022/06/29 08:26:25;;;;;;;2.60;1.80;;;;;;;26.02;49.49;101785.50;4968906;28;20197;-72
2022/06/29 08:28:51;;;;;;;7.35;1.73;;;;;;;26.37;49.36;101783.53;4953344;28;20240;-72
2022/06/29 08:31:16;;;;;;;2.40;1.75;;;;;;;26.45;49.19;101776.28;4953881;28;20662;-72
2022/06/29 08:33:42;;;;;;;2.10;1.80;;;;;;;26.02;50.07;101775.00;4953596;28;20787;-72
2022/06/29 08:36:08;;;;;;;1.65;1.55;;;;;;;25.96;49.78;101781.28;4953859;28;20827;-72
2022/06/29 08:38:33;;;;;;;2.78;1.70;;;;;;;26.29;49.44;101777.66;4954102;28;20284;-71
2022/06/29 08:40:59;;;;;;;1.80;1.70;;;;;;;26.49;48.63;101780.56;4953865;28;20663;-71
2022/06/29 08:43:25;;;;;;;3.67;1.50;;;;;;;26.31;48.88;101775.84;4953852;28;20219;-72
2022/06/29 08:45:52;;;;;;;3.05;1.58;;;;;;;26.31;48.46;101775.84;4956031;28;20192;-71
2022/06/29 08:48:17;;;;;;;1.83;1.65;;;;;;;26.73;48.27;101773.69;4972635;28;20215;-72
2022/06/29 08:50:52;;;;;;;2.38;1.80;;;;;;;27.04;46.51;101772.66;4956272;28;20189;-71
2022/06/29 08:53:18;;;;;;;2.38;1.58;;;;;;;27.00;46.64;101765.75;4953593;28;20702;-72
2022/06/29 08:55:45;;;;;;;2.45;1.60;;;;;;;26.88;47.57;101766.16;4954409;28;20216;-71
2022/06/29 08:58:22;;;;;;;2.92;1.70;;;;;;;27.48;46.82;101766.72;4953690;28;20201;-72
2022/06/29 09:00:51;;;;;;;3.00;1.55;;;;;;;27.93;45.39;101773.00;4949881;28;20692;-72
2022/06/29 09:03:18;;;;;;;2.58;1.67;;;;;;;27.92;44.85;101767.78;4949470;28;20190;-72
2022/06/29 09:05:54;;;;;;;4.82;1.52;;;;;;;28.33;44.81;101757.38;4952963;29;20678;-72
2022/06/29 09:08:21;;;;;;;4.90;1.65;;;;;;;28.54;44.01;101751.28;4968659;28;20211;-71
2022/06/29 09:10:47;;;;;;;1.80;1.55;;;;;;;28.13;43.66;101752.03;4921204;28;20276;-72
2022/06/29 09:13:22;;;;;;;3.75;1.65;;;;;;;28.27;44.46;101755.00;4951627;28;20201;-70
2022/06/29 09:15:56;;;;;;;3.92;1.63;;;;;;;27.52;45.38;101754.31;4949670;29;20197;-71
2022/06/29 09:18:30;;;;;;;1.50;1.38;;;;;;;27.99;44.84;101749.06;4964657;28;20635;-69
2022/06/29 09:21:01;;;;;;;5.18;2.05;;;;;;;28.57;43.75;101750.31;4933888;29;20259;-72
2022/06/29 09:23:28;;;;;;;6.25;1.70;;;;;;;28.22;44.24;101742.91;4953398;28;20558;-70
2022/06/29 09:25:54;;;;;;;3.28;1.80;;;;;;;28.56;44.20;101744.16;4953114;28;20275;-70
2022/06/29 09:28:25;;;;;;;3.25;1.80;;;;;;;28.95;42.96;101734.63;4946166;29;20229;-71
2022/06/29 09:30:52;;;;;;;3.83;1.75;;;;;;;29.23;42.13;101729.06;4945918;29;20677;-71
2022/06/29 09:33:23;;;;;;;3.95;2.08;;;;;;;28.64;42.55;101734.19;4960217;28;20255;-70
2022/06/29 09:36:14;;;;;;;1.85;1.60;;;;;;;28.69;42.18;101739.28;4948339;28;20241;-70
2022/06/29 09:38:40;;;;;;;6.55;2.03;;;;;;;28.88;41.68;101740.25;4953266;28;20225;-71
2022/06/29 09:41:11;;;;;;;3.17;1.85;;;;;;;28.39;42.72;101740.47;4948889;28;20224;-70
2022/06/29 09:43:42;;;;;;;5.22;1.98;;;;;;;28.03;43.79;101733.97;4933735;29;20190;-71
2022/06/29 09:46:09;;;;;;;6.13;1.85;;;;;;;28.33;43.55;101733.66;4934101;29;20194;-71
2022/06/29 09:48:36;;;;;;;3.33;1.60;;;;;;;29.00;43.43;101729.19;4933811;29;20217;-70
2022/06/29 09:51:30;;;;;;;2.25;1.77;;;;;;;28.92;42.56;101726.00;4933940;29;20610;-72
2022/06/29 09:53:54;;;;;;;2.60;1.90;;;;;;;28.43;42.86;101728.91;4950663;29;20208;-72
2022/06/29 09:56:21;;;;;;;2.20;2.00;;;;;;;28.17;42.73;101739.59;4952907;28;20189;-72
2022/06/29 09:58:48;;;;;;;1.65;1.52;;;;;;;27.93;43.86;101740.53;4951807;29;21017;-72
2022/06/29 10:04:01;;;;;;;5.93;1.70;;;;;;;28.63;43.21;101719.28;4953681;28;20181;-72
2022/06/29 10:06:28;;;;;;;5.85;1.75;;;;;;;28.56;43.53;101723.06;4951261;29;20243;-72
2022/06/29 10:08:55;;;;;;;9.88;2.42;;;;;;;28.88;42.18;101719.13;4951993;29;20209;-72
2022/06/29 10:14:34;;;;;;;2.50;1.95;;;;;;;27.68;43.85;101726.53;4953149;28;20193;-72
2022/06/29 10:17:24;;;;;;;2.80;2.05;;;;;;;28.31;43.80;101717.06;4925741;29;20257;-72
2022/06/29 10:20:09;;;;;;;6.07;1.90;;;;;;;28.71;43.34;101727.75;4933124;29;20194;-71
2022/06/29 10:22:35;;;;;;;3.60;1.90;;;;;;;28.22;42.85;101721.81;4932563;29;20189;-72
2022/06/29 10:25:06;;;;;;;2.65;1.77;;;;;;;28.13;43.12;101722.19;4933174;29;20216;-72
2022/06/29 10:27:32;;;;;;;2.15;1.55;;;;;;;27.74;43.23;101734.19;4931218;29;20273;-71
2022/06/29 10:30:28;;;;;;;4.13;1.70;;;;;;;28.18;42.75;101714.97;4930072;29;20189;-71
2022/06/29 10:33:28;;;;;;;1.73;1.63;;;;;;;29.35;41.30;101702.13;4932917;29;20194;-71
2022/06/29 10:36:05;;;;;;;1.92;1.40;;;;;;;29.34;40.46;101703.91;4943888;29;20198;-71
2022/06/29 10:38:34;;;;;;;3.08;1.60;;;;;;;28.35;41.39;101700.19;4933146;29;20691;-71
2022/06/29 10:44:02;;;;;;;2.35;1.60;;;;;;;28.61;40.54;101702.69;4932368;29;20267;-71
2022/06/29 10:46:28;;;;;;;5.07;1.80;;;;;;;28.05;40.69;101701.38;4932046;29;20201;-71
2022/06/29 10:49:19;;;;;;;2.90;1.80;;;;;;;27.75;42.01;101704.31;4932286;29;20584;-71
2022/06/29 10:51:48;;;;;;;3.17;1.60;;;;;;;28.21;41.00;101694.63;4926780;29;20186;-71
2022/06/29 10:54:24;;;;;;;2.55;1.50;;;;;;;29.26;38.81;101695.47;4932056;29;20185;-71
2022/06/29 10:56:51;;;;;;;6.43;1.45;;;;;;;29.59;38.41;101693.13;4931719;29;20735;-71
2022/06/29 10:59:35;;;;;;;3.42;1.27;;;;;;;29.34;38.46;101690.69;4943776;29;20925;-71
2022/06/29 11:02:13;;;;;;;2.50;1.45;;;;;;;29.20;37.96;101687.81;4919869;29;20189;-71
2022/06/29 11:04:39;;;;;;;3.97;1.73;;;;;;;29.49;37.92;101684.75;4941709;29;20200;-72
2022/06/29 11:12:54;;;;;;;5.75;1.83;;;;;;;29.14;37.21;101685.44;4947101;29;20197;-72
2022/06/29 11:15:39;;;;;;;1.75;1.65;;;;;;;29.03;37.05;101676.28;4947305;29;20251;-72
2022/06/29 11:18:12;;;;;;;2.50;1.58;;;;;;;29.21;35.95;101681.63;4932833;28;20231;-72
2022/06/29 11:20:39;;;;;;;1.70;1.60;;;;;;;29.30;35.82;101668.00;4950278;29;20264;-72
2022/06/29 11:23:12;;;;;;;2.25;1.40;;;;;;;29.45;36.00;101671.75;4952054;28;20196;-71
2022/06/29 11:25:40;;;;;;;2.97;1.77;;;;;;;29.35;36.11;101670.44;4949780;28;20197;-73
2022/06/29 11:28:06;;;;;;;3.00;1.83;;;;;;;29.55;35.29;101665.13;4951757;28;20212;-71
2022/06/29 11:30:32;;;;;;;2.65;1.65;;;;;;;29.91;35.77;101664.31;4949783;29;20176;-72
2022/06/29 11:32:58;;;;;;;2.05;1.60;;;;;;;29.60;35.02;101663.16;4951534;28;20219;-70
2022/06/29 11:35:26;;;;;;;1.60;1.50;;;;;;;29.88;36.50;101658.28;4951665;28;20193;-71
2022/06/29 11:38:01;;;;;;;2.10;1.80;;;;;;;30.32;34.11;101648.25;4951009;28;20204;-71
2022/06/29 11:40:41;;;;;;;1.60;1.50;;;;;;;30.32;34.55;101653.53;4951698;28;20274;-71
2022/06/29 11:43:10;;;;;;;1.85;1.58;;;;;;;30.59;34.01;101654.81;4956698;28;20763;-70
2022/06/29 11:45:51;;;;;;;1.55;1.40;;;;;;;31.09;32.56;101653.13;4956557;28;20287;-70
2022/06/29 11:48:26;;;;;;;7.40;2.08;;;;;;;30.46;32.11;101654.59;4957220;28;20674;-70